createdAt,value
2018-04-08T00:02:38.315Z,12.9
2018-04-08T00:12:38.134Z,12.9
2018-04-08T00:22:37.101Z,12.8
2018-04-08T00:32:35.978Z,12.8
2018-04-08T00:42:35.148Z,12.6
2018-04-08T00:52:34.558Z,12.4
2018-04-08T01:02:34.160Z,12.3
2018-04-08T01:12:32.989Z,12.3
2018-04-08T01:22:32.110Z,12.2
2018-04-08T01:32:31.442Z,12.1
2018-04-08T01:42:31.415Z,12
2018-04-08T01:52:30.143Z,12
2018-04-08T02:02:29.278Z,12
2018-04-08T02:12:28.613Z,11.9
2018-04-08T02:22:27.725Z,11.9
2018-04-08T02:32:26.719Z,11.9
2018-04-08T02:42:25.588Z,11.8
2018-04-08T02:52:25.053Z,11.6
2018-04-08T03:02:24.245Z,11.5
2018-04-08T03:12:23.475Z,11.4
2018-04-08T03:22:22.518Z,11.3
2018-04-08T03:32:21.730Z,11.3
2018-04-08T03:42:20.859Z,11.2
2018-04-08T03:52:20.315Z,11.2
2018-04-08T04:02:19.284Z,11.3
2018-04-08T04:12:18.422Z,11.3
2018-04-08T04:22:17.753Z,11.5
2018-04-08T04:32:17.115Z,11.1
2018-04-08T04:42:16.482Z,11.1
2018-04-08T04:52:15.681Z,11.7
2018-04-08T05:02:14.721Z,12.6
2018-04-08T05:12:14.011Z,13.6
2018-04-08T05:22:13.193Z,14.7
2018-04-08T05:32:12.261Z,15.8
2018-04-08T05:42:11.336Z,17.1
2018-04-08T05:52:10.831Z,18.3
2018-04-08T06:02:09.819Z,19.3
2018-04-08T06:12:09.252Z,20
2018-04-08T06:22:08.645Z,20.6
2018-04-08T06:32:07.453Z,21.3
2018-04-08T06:42:06.625Z,22.3
2018-04-08T06:52:06.172Z,23
2018-04-08T07:02:06.073Z,23.2
2018-04-08T07:12:04.768Z,23.2
2018-04-08T07:22:03.716Z,22.8
2018-04-08T07:32:02.699Z,23.2
2018-04-08T07:42:02.036Z,23
2018-04-08T07:52:01.256Z,23.9
2018-04-08T08:02:00.301Z,26.1
2018-04-08T08:11:59.666Z,26.8
2018-04-08T08:21:59.540Z,28
2018-04-08T08:31:57.918Z,27.8
2018-04-08T08:41:57.435Z,27.6
2018-04-08T08:51:56.337Z,26.1
2018-04-08T09:01:55.394Z,26.7
2018-04-08T09:11:54.962Z,26.6
2018-04-08T09:21:53.996Z,26.6
2018-04-08T09:31:53.095Z,27.4
2018-04-08T09:41:52.516Z,26.8
2018-04-08T09:51:52.080Z,25.7
2018-04-08T10:01:51.148Z,24.8
2018-04-08T10:11:50.127Z,24.1
2018-04-08T10:21:49.379Z,23.6
2018-04-08T10:31:48.464Z,23.4
2018-04-08T10:41:48.091Z,23
2018-04-08T10:51:47.083Z,23.1
2018-04-08T11:01:46.203Z,22.4
2018-04-08T11:11:45.977Z,22.6
2018-04-08T11:21:44.611Z,22.3
2018-04-08T11:31:43.515Z,22.3
2018-04-08T11:41:43.478Z,21.8
2018-04-08T11:51:42.208Z,21.8
2018-04-08T12:01:41.288Z,21.6
2018-04-08T12:11:41.317Z,21.4
2018-04-08T12:21:39.822Z,21.4
2018-04-08T12:31:38.893Z,21
2018-04-08T12:41:38.613Z,20.9
2018-04-08T12:51:37.199Z,20.9
2018-04-08T13:01:36.916Z,20.8
2018-04-08T13:11:36.364Z,20.8
2018-04-08T13:21:34.882Z,20.7
2018-04-08T13:31:34.328Z,20.5
2018-04-08T13:41:33.498Z,20.6
2018-04-08T13:51:33.166Z,20.5
2018-04-08T14:01:32.032Z,20.4
2018-04-08T14:11:31.402Z,20.2
2018-04-08T14:21:30.340Z,20.2
2018-04-08T14:31:29.604Z,20.1
2018-04-08T14:41:28.616Z,20
2018-04-08T14:51:28.066Z,19.9
2018-04-08T15:01:26.986Z,19.7
2018-04-08T15:11:26.306Z,19.6
2018-04-08T15:21:25.538Z,19.6
2018-04-08T15:31:24.923Z,19.5
2018-04-08T15:41:24.332Z,19
2018-04-08T15:51:23.104Z,18.6
2018-04-08T16:01:22.506Z,18.4
2018-04-08T16:11:22.070Z,18.1
2018-04-08T16:21:21.215Z,17.9
2018-04-08T16:31:20.243Z,17.7
2018-04-08T16:41:19.394Z,17.5
2018-04-08T16:51:18.373Z,17.3
2018-04-08T17:01:17.590Z,17.1
2018-04-08T17:11:17.154Z,17.2
2018-04-08T17:21:16.394Z,17.1
2018-04-08T17:31:15.482Z,17.1
2018-04-08T17:41:14.817Z,17.1
2018-04-08T17:51:14.486Z,17.1
2018-04-08T18:01:12.863Z,16.9
2018-04-08T18:11:12.670Z,16.8
2018-04-08T18:21:11.622Z,16.6
2018-04-08T18:31:10.890Z,16.6
2018-04-08T18:41:10.119Z,16.4
2018-04-08T18:51:09.151Z,16.3
2018-04-08T19:01:08.500Z,16.3
2018-04-08T19:11:07.918Z,16.2
2018-04-08T19:21:06.533Z,16.1
2018-04-08T19:31:06.196Z,16.1
2018-04-08T19:41:05.201Z,16.1
2018-04-08T19:51:04.533Z,16
2018-04-08T20:01:03.711Z,16
2018-04-08T20:11:03.232Z,15.9
2018-04-08T20:21:01.795Z,15.8
2018-04-08T20:31:01.159Z,15.7
2018-04-08T20:41:00.528Z,15.6
2018-04-08T20:50:59.550Z,15.5
2018-04-08T21:00:58.883Z,15.4
2018-04-08T21:10:58.315Z,15.4
2018-04-08T21:20:57.735Z,15.5
2018-04-08T21:30:57.018Z,15.5
2018-04-08T21:40:55.458Z,15.4
2018-04-08T21:50:55.069Z,15.3
2018-04-08T22:00:54.414Z,15.1
2018-04-08T22:10:53.782Z,14.9
2018-04-08T22:20:52.660Z,14.8
2018-04-08T22:30:51.956Z,14.6
2018-04-08T22:40:50.725Z,14.5
2018-04-08T22:50:50.331Z,14.3
2018-04-08T23:00:49.238Z,14.1
2018-04-08T23:10:48.683Z,14
2018-04-08T23:20:47.700Z,13.9
2018-04-08T23:30:47.115Z,13.8
2018-04-08T23:40:46.085Z,13.9
2018-04-08T23:50:45.346Z,13.8
